Time;durP1;ratioP1;P1;durP2;ratioP2;P2;SDS_P1;SDS_P2;PMS_P1;PMS_P2;Temp;Humidity;BMP_temperature;BMP_pressure;BME280_temperature;BME280_humidity;BME280_pressure;Samples;Min_cycle;Max_cycle;Signal;HPM_P1;HPM_P2
2023/09/04 00:01:56;;;;;;;6.65;3.22;;;16.50;99.90;;;;;;4211531;28;20074;-82
2023/09/04 00:03:56;;;;;;;2.80;2.53;;;16.60;99.90;;;;;;4212699;28;20054;-82
2023/09/04 00:05:58;;;;;;;3.15;2.80;;;16.20;99.90;;;;;;4230702;28;20040;-82
2023/09/04 00:07:59;;;;;;;3.17;2.55;;;16.20;99.90;;;;;;4212323;28;20087;-82
2023/09/04 00:10:00;;;;;;;3.63;2.78;;;16.10;99.90;;;;;;4230691;28;20052;-83
2023/09/04 00:12:00;;;;;;;2.92;2.45;;;16.10;99.90;;;;;;4212800;28;20125;-82
2023/09/04 00:14:01;;;;;;;3.97;3.10;;;16.00;99.90;;;;;;4230834;28;20613;-82
2023/09/04 00:16:02;;;;;;;4.00;3.15;;;16.00;99.90;;;;;;4212687;28;20067;-82
2023/09/04 00:18:04;;;;;;;4.05;2.92;;;15.90;99.90;;;;;;4213558;28;20535;-82
2023/09/04 00:20:05;;;;;;;3.97;3.20;;;15.90;99.90;;;;;;4214890;28;20111;-83
2023/09/04 00:22:06;;;;;;;3.65;3.13;;;15.80;99.90;;;;;;4215925;28;20480;-82
2023/09/04 00:24:06;;;;;;;3.28;2.97;;;15.80;99.90;;;;;;4213876;28;20047;-83
2023/09/04 00:26:07;;;;;;;4.97;2.90;;;15.90;99.90;;;;;;4213458;28;20047;-83
2023/09/04 00:28:08;;;;;;;4.18;2.95;;;15.80;99.90;;;;;;4213937;28;20115;-83
2023/09/04 00:30:10;;;;;;;3.70;2.75;;;15.80;99.90;;;;;;4213645;28;20044;-82
2023/09/04 00:32:10;;;;;;;3.95;3.03;;;15.80;99.90;;;;;;4216199;28;20491;-83
2023/09/04 00:34:11;;;;;;;4.57;3.55;;;15.70;99.90;;;;;;4215869;28;20101;-83
2023/09/04 00:36:12;;;;;;;4.90;3.40;;;15.70;99.90;;;;;;4217001;28;20036;-83
2023/09/04 00:38:13;;;;;;;4.50;3.22;;;15.70;99.90;;;;;;4218333;28;20039;-83
2023/09/04 00:40:13;;;;;;;5.35;3.60;;;15.70;99.90;;;;;;4216950;28;20461;-83
2023/09/04 00:42:15;;;;;;;5.28;3.10;;;15.70;99.90;;;;;;4216894;28;20119;-82
2023/09/04 00:44:17;;;;;;;8.82;4.68;;;15.70;99.90;;;;;;4216940;28;20063;-82
2023/09/04 00:46:18;;;;;;;5.68;3.42;;;15.60;99.90;;;;;;4215324;28;20486;-83
2023/09/04 00:48:19;;;;;;;4.68;3.17;;;15.70;99.90;;;;;;4216692;28;20051;-83
2023/09/04 00:50:23;;;;;;;4.90;3.85;;;15.60;99.90;;;;;;4215781;28;20510;-83
2023/09/04 00:52:25;;;;;;;6.75;4.53;;;15.60;99.90;;;;;;4217122;28;20430;-83
2023/09/04 00:54:26;;;;;;;6.10;4.60;;;15.60;99.90;;;;;;4230464;28;20040;-83
2023/09/04 00:56:27;;;;;;;8.35;4.70;;;15.60;99.90;;;;;;4240170;28;20028;-83
2023/09/04 00:58:27;;;;;;;8.02;4.70;;;15.60;99.90;;;;;;4219639;28;20079;-83
2023/09/04 01:00:29;;;;;;;6.32;3.97;;;15.50;99.90;;;;;;4215002;28;20052;-83
2023/09/04 01:02:29;;;;;;;5.90;3.63;;;15.50;99.90;;;;;;4218721;28;20440;-83
2023/09/04 01:04:30;;;;;;;7.25;4.32;;;15.50;99.90;;;;;;4216752;28;20048;-83
2023/09/04 01:06:31;;;;;;;6.00;4.35;;;15.50;99.90;;;;;;4216773;28;20123;-82
2023/09/04 01:08:32;;;;;;;6.45;4.13;;;15.40;99.90;;;;;;4218631;28;20486;-83
2023/09/04 01:10:44;;;;;;;6.90;4.57;;;15.40;99.90;;;;;;4198163;28;20048;-83
2023/09/04 01:13:37;;;;;;;8.25;4.82;;;15.40;99.90;;;;;;4215174;28;20051;-83
2023/09/04 01:15:38;;;;;;;7.22;4.35;;;15.40;99.90;;;;;;4198593;28;20048;-83
2023/09/04 01:17:40;;;;;;;6.75;4.30;;;15.30;99.90;;;;;;4216410;28;20044;-82
2023/09/04 01:19:43;;;;;;;5.63;3.90;;;15.30;99.90;;;;;;4198109;28;20049;-83
2023/09/04 01:21:44;;;;;;;8.38;4.32;;;15.30;99.90;;;;;;4216173;28;20043;-82
2023/09/04 01:23:45;;;;;;;5.13;3.95;;;15.30;99.90;;;;;;4215700;28;20174;-82
2023/09/04 01:25:54;;;;;;;7.43;5.07;;;15.20;99.90;;;;;;4216030;28;20074;-82
2023/09/04 01:28:14;;;;;;;8.85;5.60;;;15.20;99.90;;;;;;4216341;28;20131;-82
2023/09/04 01:30:29;;;;;;;9.60;5.18;;;15.30;99.90;;;;;;4219490;28;20079;-83
2023/09/04 01:32:58;;;;;;;7.78;5.85;;;15.20;99.90;;;;;;4226617;28;20043;-83
2023/09/04 01:35:01;;;;;;;12.45;5.85;;;15.20;99.90;;;;;;4231464;28;20074;-82
2023/09/04 01:37:02;;;;;;;7.32;5.80;;;15.20;99.90;;;;;;4232650;28;20218;-83
2023/09/04 01:39:03;;;;;;;8.18;5.20;;;15.20;99.90;;;;;;4232689;28;20046;-83
2023/09/04 01:41:05;;;;;;;13.05;5.85;;;14.80;99.90;;;;;;4231225;28;20055;-83
2023/09/04 01:43:06;;;;;;;7.38;5.10;;;15.70;99.90;;;;;;4232664;28;20046;-83
2023/09/04 01:45:07;;;;;;;7.57;5.03;;;15.20;99.90;;;;;;4232912;28;20123;-83
2023/09/04 01:47:08;;;;;;;10.02;5.38;;;15.10;99.90;;;;;;4228620;28;20071;-84
2023/09/04 01:49:09;;;;;;;7.88;5.70;;;15.20;99.90;;;;;;4231094;28;20052;-83
2023/09/04 01:51:10;;;;;;;6.18;4.85;;;15.10;99.90;;;;;;4232810;28;20048;-83
2023/09/04 01:53:10;;;;;;;6.65;4.78;;;15.20;99.90;;;;;;4233100;28;20043;-83
2023/09/04 01:55:11;;;;;;;9.15;5.53;;;15.10;99.90;;;;;;4232908;28;20124;-83
2023/09/04 01:57:12;;;;;;;9.55;6.55;;;15.10;99.90;;;;;;4234151;28;20044;-83
2023/09/04 01:59:13;;;;;;;9.90;6.22;;;15.10;99.90;;;;;;4232983;28;20043;-83
2023/09/04 02:01:14;;;;;;;11.43;6.53;;;15.10;99.90;;;;;;4233116;28;20039;-83
2023/09/04 02:03:15;;;;;;;10.90;6.13;;;15.10;99.90;;;;;;4215211;28;20093;-83
2023/09/04 02:05:15;;;;;;;11.07;5.78;;;15.20;99.90;;;;;;4226475;28;20044;-83
2023/09/04 02:07:16;;;;;;;9.40;5.32;;;15.20;99.90;;;;;;4214641;28;20044;-83
2023/09/04 02:09:17;;;;;;;8.35;5.25;;;15.20;99.90;;;;;;4232709;28;20040;-83
2023/09/04 02:11:18;;;;;;;8.70;5.90;;;14.50;99.90;;;;;;4231711;28;20087;-82
2023/09/04 02:13:18;;;;;;;7.75;5.75;;;15.10;99.90;;;;;;4233440;28;20051;-83
2023/09/04 02:15:19;;;;;;;8.52;5.57;;;15.10;99.90;;;;;;4233814;28;20438;-83
2023/09/04 02:17:20;;;;;;;8.00;5.35;;;15.10;99.90;;;;;;4243176;28;20031;-81
2023/09/04 02:19:21;;;;;;;8.18;5.88;;;15.10;99.90;;;;;;4234132;28;20071;-81
2023/09/04 02:21:21;;;;;;;9.82;7.05;;;15.00;99.90;;;;;;4233012;28;20054;-84
2023/09/04 02:23:22;;;;;;;12.05;7.75;;;15.10;99.90;;;;;;4222354;28;20072;-83
2023/09/04 02:25:24;;;;;;;10.43;6.22;;;15.00;99.90;;;;;;4215409;28;20036;-83
2023/09/04 02:27:25;;;;;;;10.43;6.80;;;15.10;99.90;;;;;;4213641;28;20051;-83
2023/09/04 02:29:26;;;;;;;13.48;7.55;;;15.10;99.90;;;;;;4213903;28;20141;-84
2023/09/04 02:31:26;;;;;;;9.63;6.40;;;15.00;99.90;;;;;;4215404;28;20044;-83
2023/09/04 02:33:27;;;;;;;9.13;6.53;;;15.00;99.90;;;;;;4214083;28;20130;-83
2023/09/04 02:35:28;;;;;;;9.10;6.82;;;15.00;99.90;;;;;;4213824;28;20047;-83
2023/09/04 02:37:29;;;;;;;8.07;6.03;;;15.00;99.90;;;;;;4197152;28;20528;-84
2023/09/04 02:39:30;;;;;;;9.88;6.45;;;15.00;99.90;;;;;;4213278;28;20044;-84
2023/09/04 02:41:30;;;;;;;8.55;6.10;;;14.90;99.90;;;;;;4196660;28;20128;-84
2023/09/04 02:43:31;;;;;;;8.80;6.25;;;14.90;99.90;;;;;;4215002;28;20040;-84
2023/09/04 02:45:33;;;;;;;8.93;5.70;;;14.90;99.90;;;;;;4214101;28;20131;-84
2023/09/04 02:47:35;;;;;;;9.23;5.82;;;14.80;99.90;;;;;;4214870;28;20044;-83
2023/09/04 02:49:36;;;;;;;10.13;6.30;;;14.90;99.90;;;;;;4214506;28;20507;-83
2023/09/04 02:51:37;;;;;;;10.45;6.03;;;14.80;99.90;;;;;;4214923;28;20040;-83
2023/09/04 02:53:39;;;;;;;8.75;5.75;;;14.80;99.90;;;;;;4213134;28;20123;-83
2023/09/04 02:55:39;;;;;;;9.93;6.45;;;14.80;99.90;;;;;;4213454;28;20044;-84
2023/09/04 02:57:40;;;;;;;8.45;5.80;;;15.00;99.90;;;;;;4226249;28;20073;-83
2023/09/04 02:59:41;;;;;;;7.82;5.43;;;14.80;99.90;;;;;;4231330;28;20396;-83
2023/09/04 03:01:42;;;;;;;9.65;6.38;;;14.80;99.90;;;;;;4230323;28;20082;-83
2023/09/04 03:03:44;;;;;;;12.75;6.10;;;14.70;99.90;;;;;;4231629;28;20470;-83
2023/09/04 03:05:45;;;;;;;10.35;5.93;;;14.70;99.90;;;;;;4229766;28;20488;-83
2023/09/04 03:07:47;;;;;;;11.00;6.00;;;14.70;99.90;;;;;;4231652;28;20407;-83
2023/09/04 03:09:53;;;;;;;8.40;5.35;;;14.60;99.90;;;;;;4229972;28;20462;-84
2023/09/04 03:11:54;;;;;;;7.22;5.25;;;14.70;99.90;;;;;;4231286;28;20040;-83
2023/09/04 03:13:54;;;;;;;8.23;5.93;;;14.60;99.90;;;;;;4209078;28;20097;-84
2023/09/04 03:15:55;;;;;;;9.38;6.18;;;14.60;99.90;;;;;;4234026;27;20411;-83
2023/09/04 03:17:56;;;;;;;7.72;5.40;;;14.60;99.90;;;;;;4212662;28;20043;-83
2023/09/04 03:19:58;;;;;;;7.03;5.05;;;15.60;99.90;;;;;;4230992;28;20511;-84
2023/09/04 03:21:59;;;;;;;7.55;5.57;;;14.60;99.90;;;;;;4213042;28;20051;-84
2023/09/04 03:23:59;;;;;;;9.93;5.65;;;14.60;99.90;;;;;;4213184;28;20097;-84
2023/09/04 03:26:01;;;;;;;7.75;5.10;;;14.60;99.90;;;;;;4212830;28;20069;-84
2023/09/04 03:28:02;;;;;;;8.27;5.47;;;14.60;99.90;;;;;;4231182;28;20044;-84
2023/09/04 03:30:03;;;;;;;9.88;5.55;;;14.50;99.90;;;;;;4212513;28;20047;-84
2023/09/04 03:32:05;;;;;;;6.95;5.43;;;14.60;99.90;;;;;;4195815;28;20040;-84
2023/09/04 03:34:06;;;;;;;6.97;5.00;;;14.60;99.90;;;;;;4247596;27;20352;-84
2023/09/04 03:36:07;;;;;;;9.23;5.60;;;14.50;99.90;;;;;;4247943;27;20051;-84
2023/09/04 03:38:08;;;;;;;7.97;5.65;;;14.60;99.90;;;;;;4229789;28;20416;-84
2023/09/04 03:40:23;;;;;;;7.22;4.95;;;14.50;99.90;;;;;;4212782;28;20052;-84
2023/09/04 03:42:23;;;;;;;7.50;5.05;;;14.70;99.90;;;;;;4247522;27;20047;-83
2023/09/04 03:44:26;;;;;;;7.32;5.05;;;14.50;99.90;;;;;;4213290;28;20552;-84
2023/09/04 03:46:27;;;;;;;7.95;5.45;;;14.40;99.90;;;;;;4212663;28;20047;-84
2023/09/04 03:48:28;;;;;;;7.50;5.05;;;14.50;99.90;;;;;;4247512;28;20044;-84
2023/09/04 03:50:29;;;;;;;7.53;5.03;;;14.50;99.90;;;;;;4211069;28;20055;-84
2023/09/04 03:52:30;;;;;;;7.43;5.22;;;14.40;99.90;;;;;;4237323;28;20035;-84
2023/09/04 03:54:31;;;;;;;8.80;5.00;;;14.30;99.90;;;;;;4230771;28;20495;-84
2023/09/04 03:56:32;;;;;;;8.07;5.05;;;14.30;99.90;;;;;;4212666;28;20623;-84
2023/09/04 03:58:33;;;;;;;11.60;5.40;;;14.30;99.90;;;;;;4212558;28;20059;-84
2023/09/04 04:00:34;;;;;;;6.20;4.57;;;14.20;99.90;;;;;;4195885;28;20512;-84
2023/09/04 04:02:34;;;;;;;6.40;4.53;;;14.20;99.90;;;;;;4212194;28;20182;-84
2023/09/04 04:04:35;;;;;;;8.85;4.00;;;14.20;99.90;;;;;;4230652;28;20031;-84
2023/09/04 04:06:36;;;;;;;7.95;4.22;;;14.20;99.90;;;;;;4199177;28;20573;-84
2023/09/04 04:08:37;;;;;;;7.80;3.75;;;14.10;99.90;;;;;;4234093;27;20043;-84
2023/09/04 04:10:39;;;;;;;5.55;3.35;;;14.10;99.90;;;;;;4223843;27;20090;-84
2023/09/04 04:12:40;;;;;;;5.15;3.35;;;14.00;99.90;;;;;;4233398;28;20093;-84
2023/09/04 04:14:41;;;;;;;4.57;3.17;;;14.00;99.90;;;;;;4198837;28;20622;-84
2023/09/04 04:16:42;;;;;;;4.60;3.55;;;13.90;99.90;;;;;;4234032;28;20052;-83
2023/09/04 04:18:42;;;;;;;5.93;3.83;;;13.90;99.90;;;;;;4234237;28;20043;-84
2023/09/04 04:20:44;;;;;;;5.85;3.42;;;13.90;99.90;;;;;;4233912;28;20039;-84
2023/09/04 04:22:45;;;;;;;5.13;3.50;;;13.90;99.90;;;;;;4198594;28;20114;-84
2023/09/04 04:24:46;;;;;;;5.82;3.97;;;13.80;99.90;;;;;;4215635;28;20539;-84
2023/09/04 04:26:47;;;;;;;5.35;3.83;;;13.80;99.90;;;;;;4199060;28;20123;-84
2023/09/04 04:28:48;;;;;;;5.40;3.75;;;13.80;99.90;;;;;;4244599;27;20039;-84
2023/09/04 04:30:49;;;;;;;6.47;3.65;;;13.80;99.90;;;;;;4233036;28;20039;-84
2023/09/04 04:32:50;;;;;;;5.78;3.85;;;13.80;99.90;;;;;;4215508;28;20527;-84
2023/09/04 04:34:51;;;;;;;6.10;4.57;;;13.70;99.90;;;;;;4250650;27;20132;-84
2023/09/04 04:36:56;;;;;;;5.53;3.65;;;13.70;99.90;;;;;;4215711;28;20040;-84
2023/09/04 04:38:56;;;;;;;6.07;3.72;;;13.70;99.90;;;;;;4250735;27;20487;-84
2023/09/04 04:40:57;;;;;;;5.30;3.65;;;13.60;99.90;;;;;;4250386;27;20043;-84
2023/09/04 04:42:58;;;;;;;6.97;4.20;;;13.50;99.90;;;;;;4250818;27;20533;-84
2023/09/04 04:44:59;;;;;;;6.43;4.07;;;13.70;99.90;;;;;;4245094;27;20048;-84
2023/09/04 04:47:00;;;;;;;5.72;4.10;;;13.00;99.90;;;;;;4233511;28;20119;-84
2023/09/04 04:49:01;;;;;;;9.48;3.85;;;15.10;99.90;;;;;;4198734;28;20447;-84
2023/09/04 04:51:01;;;;;;;5.40;3.95;;;13.60;99.90;;;;;;4233420;28;20039;-83
2023/09/04 04:53:03;;;;;;;5.20;3.80;;;13.60;99.90;;;;;;4233719;28;20040;-84
2023/09/04 04:55:04;;;;;;;5.70;3.80;;;13.50;99.90;;;;;;4215057;28;20032;-84
2023/09/04 04:57:05;;;;;;;5.57;3.50;;;13.50;99.90;;;;;;4233682;28;20043;-84
2023/09/04 04:59:08;;;;;;;6.00;4.25;;;13.50;99.90;;;;;;4198375;28;20582;-84
2023/09/04 05:01:08;;;;;;;7.47;4.28;;;13.50;99.90;;;;;;4218662;28;20058;-84
2023/09/04 05:03:09;;;;;;;19.75;4.43;;;13.50;99.90;;;;;;4247013;27;20043;-84
2023/09/04 05:05:10;;;;;;;6.88;3.85;;;14.30;99.90;;;;;;4232070;28;20518;-84
2023/09/04 05:07:12;;;;;;;6.35;3.72;;;13.50;99.90;;;;;;4250306;27;20035;-83
2023/09/04 05:09:13;;;;;;;5.00;3.90;;;13.60;99.90;;;;;;4249647;27;20485;-83
2023/09/04 05:11:14;;;;;;;6.68;3.80;;;13.40;99.90;;;;;;4250152;27;20043;-83
2023/09/04 05:13:14;;;;;;;5.03;3.50;;;13.40;99.90;;;;;;4215198;28;20052;-84
2023/09/04 05:15:15;;;;;;;7.20;3.58;;;13.40;99.90;;;;;;4214751;28;20056;-84
2023/09/04 05:17:16;;;;;;;6.38;4.32;;;13.40;99.90;;;;;;4249333;27;20047;-84
2023/09/04 05:19:17;;;;;;;5.45;3.40;;;13.40;99.90;;;;;;4208744;28;20037;-84
2023/09/04 05:21:17;;;;;;;7.35;4.00;;;13.40;99.90;;;;;;4233016;28;20036;-84
2023/09/04 05:23:18;;;;;;;6.13;4.05;;;13.40;99.90;;;;;;4233053;28;20039;-83
2023/09/04 05:25:19;;;;;;;7.35;4.15;;;13.50;99.90;;;;;;4233142;28;20075;-84
2023/09/04 05:27:20;;;;;;;7.22;3.78;;;13.50;99.90;;;;;;4198093;28;20049;-84
2023/09/04 05:29:21;;;;;;;6.30;3.95;;;13.50;99.90;;;;;;4232857;28;20035;-84
2023/09/04 05:31:21;;;;;;;6.53;4.15;;;13.50;99.90;;;;;;4198025;28;20538;-84
2023/09/04 05:33:22;;;;;;;4.45;3.30;;;13.50;99.90;;;;;;4233091;28;20043;-84
2023/09/04 05:35:23;;;;;;;12.38;3.83;;;13.60;99.90;;;;;;4205948;28;20055;-84
2023/09/04 05:37:24;;;;;;;5.65;4.00;;;13.60;99.90;;;;;;4232705;28;20389;-83
2023/09/04 05:39:25;;;;;;;5.38;3.92;;;13.60;99.90;;;;;;4232819;28;20051;-84
2023/09/04 05:41:26;;;;;;;6.10;4.05;;;13.50;99.90;;;;;;4232680;28;20354;-83
2023/09/04 05:43:26;;;;;;;6.72;4.18;;;13.50;99.90;;;;;;4232273;28;20114;-84
2023/09/04 05:45:27;;;;;;;7.30;4.50;;;13.50;99.90;;;;;;4232644;28;20177;-84
2023/09/04 05:47:28;;;;;;;7.38;4.95;;;13.60;99.90;;;;;;4214266;28;20042;-83
2023/09/04 05:49:29;;;;;;;7.32;4.47;;;13.60;99.90;;;;;;4232628;28;20083;-84
2023/09/04 05:51:29;;;;;;;8.40;5.35;;;13.60;99.90;;;;;;4214648;28;20492;-84
2023/09/04 05:53:31;;;;;;;11.90;6.15;;;13.80;99.90;;;;;;4244690;27;20036;-83
2023/09/04 05:55:35;;;;;;;8.82;5.95;;;13.80;99.90;;;;;;4232276;28;20075;-84
2023/09/04 05:57:36;;;;;;;11.38;6.93;;;13.80;99.90;;;;;;4214498;28;20046;-84
2023/09/04 05:59:37;;;;;;;13.23;7.38;;;13.80;99.90;;;;;;4232353;28;20195;-84
2023/09/04 06:01:38;;;;;;;12.07;7.65;;;14.70;99.90;;;;;;4214377;28;20076;-84
2023/09/04 06:03:40;;;;;;;11.02;7.43;;;13.90;99.90;;;;;;4214261;28;20051;-84
2023/09/04 06:05:42;;;;;;;13.10;6.65;;;14.00;99.90;;;;;;4214000;28;20076;-84
2023/09/04 06:07:42;;;;;;;14.80;7.38;;;14.00;99.90;;;;;;4232131;28;20039;-84
2023/09/04 06:09:44;;;;;;;12.82;8.43;;;14.10;99.90;;;;;;4232195;28;20066;-83
2023/09/04 06:11:44;;;;;;;11.85;7.40;;;14.20;99.90;;;;;;4233599;27;20093;-84
2023/09/04 06:13:45;;;;;;;14.30;8.48;;;14.20;99.90;;;;;;4234007;27;20040;-84
2023/09/04 06:15:51;;;;;;;12.07;7.43;;;14.30;99.90;;;;;;4231775;28;20059;-83
2023/09/04 06:17:51;;;;;;;11.18;6.78;;;14.30;99.90;;;;;;4232423;28;20047;-84
2023/09/04 06:19:52;;;;;;;11.35;6.65;;;14.40;99.90;;;;;;4213750;28;20044;-83
2023/09/04 06:21:54;;;;;;;19.02;8.63;;;14.40;99.90;;;;;;4197156;28;20144;-81
2023/09/04 06:23:55;;;;;;;13.02;7.35;;;14.60;99.90;;;;;;4240743;27;20069;-85
2023/09/04 06:25:56;;;;;;;11.52;8.20;;;14.80;99.90;;;;;;4231013;28;20047;-86
2023/09/04 06:27:57;;;;;;;10.98;7.18;;;14.60;99.90;;;;;;4230476;28;20046;-85
2023/09/04 06:29:59;;;;;;;11.13;6.88;;;14.70;99.90;;;;;;4247169;27;20096;-85
2023/09/04 06:31:59;;;;;;;12.73;8.18;;;14.80;99.90;;;;;;4249108;27;20046;-86
2023/09/04 06:34:03;;;;;;;12.55;8.00;;;14.90;99.90;;;;;;4245863;27;20035;-85
2023/09/04 06:36:05;;;;;;;13.43;7.88;;;14.90;99.90;;;;;;4246664;27;20470;-85
2023/09/04 06:38:05;;;;;;;12.77;7.95;;;15.10;99.90;;;;;;4251375;27;20039;-85
2023/09/04 06:40:07;;;;;;;10.85;7.85;;;15.10;99.90;;;;;;4238670;27;20102;-86
2023/09/04 06:42:08;;;;;;;11.23;7.55;;;15.20;99.90;;;;;;4221927;28;20058;-85
2023/09/04 06:44:09;;;;;;;12.82;7.50;;;15.30;99.90;;;;;;4246773;27;20077;-85
2023/09/04 06:46:10;;;;;;;14.48;8.35;;;15.40;99.90;;;;;;4266194;27;20038;-86
2023/09/04 06:48:11;;;;;;;13.85;7.22;;;15.40;99.90;;;;;;4248079;27;20096;-85
2023/09/04 06:50:11;;;;;;;13.77;7.65;;;15.60;99.90;;;;;;4238581;27;20042;-85
2023/09/04 06:52:12;;;;;;;12.82;7.20;;;15.60;99.90;;;;;;4235685;27;20044;-86
2023/09/04 06:54:13;;;;;;;12.70;7.65;;;15.70;99.90;;;;;;4257076;27;20495;-85
2023/09/04 06:56:14;;;;;;;11.77;7.85;;;15.80;99.90;;;;;;4238413;27;20073;-85
2023/09/04 06:58:17;;;;;;;11.93;7.43;;;16.00;99.90;;;;;;4257104;27;20042;-86
2023/09/04 07:00:19;;;;;;;11.70;7.32;;;16.10;99.90;;;;;;4222215;28;20055;-88
2023/09/04 07:02:20;;;;;;;12.23;8.10;;;16.20;99.90;;;;;;4238847;27;20072;-87
2023/09/04 07:04:20;;;;;;;12.80;8.05;;;16.30;99.90;;;;;;4238306;27;20465;-87
2023/09/04 07:06:22;;;;;;;10.93;7.10;;;16.40;99.90;;;;;;4222382;28;20048;-86
2023/09/04 07:08:23;;;;;;;14.95;8.13;;;16.50;99.90;;;;;;4220394;28;20081;-86
2023/09/04 07:10:24;;;;;;;12.75;9.00;;;16.60;99.90;;;;;;4233977;27;20492;-87
2023/09/04 07:12:26;;;;;;;13.07;8.25;;;16.80;99.90;;;;;;4225638;28;20044;-87
2023/09/04 07:14:27;;;;;;;12.00;8.35;;;16.80;99.90;;;;;;4241720;27;20046;-87
2023/09/04 07:16:37;;;;;;;16.63;8.23;;;16.80;99.90;;;;;;4236236;27;20052;-87
2023/09/04 07:18:38;;;;;;;13.93;8.50;;;16.30;99.90;;;;;;4226997;28;20039;-87
2023/09/04 07:20:40;;;;;;;16.75;7.78;;;16.90;99.90;;;;;;4238838;27;20043;-87
2023/09/04 07:22:41;;;;;;;9.73;7.25;;;17.30;99.90;;;;;;4219843;28;20093;-87
2023/09/04 07:24:43;;;;;;;12.02;7.53;;;17.50;99.90;;;;;;4213688;28;20479;-87
2023/09/04 07:26:44;;;;;;;9.77;6.82;;;17.50;99.90;;;;;;4224287;28;20039;-87
2023/09/04 07:28:44;;;;;;;10.32;6.55;;;17.70;99.90;;;;;;4231277;28;20053;-87
2023/09/04 07:30:46;;;;;;;12.07;6.65;;;17.90;99.90;;;;;;4213430;28;20047;-87
2023/09/04 07:32:47;;;;;;;11.77;7.32;;;18.10;99.90;;;;;;4213449;28;20128;-87
2023/09/04 07:34:49;;;;;;;13.18;7.35;;;18.20;99.90;;;;;;4230450;28;20852;-87
2023/09/04 07:36:49;;;;;;;10.77;7.13;;;18.30;99.90;;;;;;4231674;28;20052;-88
2023/09/04 07:38:50;;;;;;;10.93;7.22;;;18.20;99.90;;;;;;4230444;28;20129;-87
2023/09/04 07:41:01;;;;;;;11.10;6.63;;;18.30;99.90;;;;;;4213329;28;20048;-87
2023/09/04 07:43:03;;;;;;;11.13;7.70;;;18.60;99.90;;;;;;4221947;28;20052;-87
2023/09/04 07:45:04;;;;;;;9.40;6.63;;;19.90;99.90;;;;;;4227201;28;20495;-87
2023/09/04 07:47:05;;;;;;;10.00;7.22;;;18.90;99.90;;;;;;4202437;28;20097;-87
2023/09/04 07:49:06;;;;;;;14.10;6.80;;;19.20;99.90;;;;;;4228221;28;20083;-87
2023/09/04 07:51:09;;;;;;;14.52;6.57;;;19.90;99.90;;;;;;4213293;28;20105;-87
2023/09/04 07:53:10;;;;;;;13.50;7.32;;;19.60;99.90;;;;;;4215126;28;20036;-88
2023/09/04 07:55:10;;;;;;;12.90;6.90;;;19.70;99.90;;;;;;4231255;28;20100;-89
2023/09/04 07:57:11;;;;;;;10.90;5.95;;;19.80;99.90;;;;;;4205534;28;20170;-83
2023/09/04 07:59:12;;;;;;;7.53;5.03;;;19.80;99.90;;;;;;4229589;28;20400;-82
2023/09/04 08:01:14;;;;;;;8.80;4.93;;;19.90;99.90;;;;;;4226371;28;20048;-82
2023/09/04 08:03:15;;;;;;;7.85;4.65;;;20.00;99.90;;;;;;4239396;28;20032;-82
2023/09/04 08:05:18;;;;;;;9.48;4.57;;;20.10;99.90;;;;;;4233563;28;20047;-82
2023/09/04 08:07:24;;;;;;;5.88;4.55;;;20.20;99.90;;;;;;4216359;28;20569;-82
2023/09/04 08:10:19;;;;;;;9.20;4.60;;;20.30;99.90;;;;;;4234056;28;20040;-82
2023/09/04 08:12:20;;;;;;;6.40;4.20;;;20.50;99.90;;;;;;4232318;28;20051;-82
2023/09/04 08:14:20;;;;;;;6.70;4.60;;;20.70;99.90;;;;;;4224765;28;20040;-82
2023/09/04 08:16:21;;;;;;;9.25;3.97;;;20.80;99.90;;;;;;4215660;28;20044;-81
2023/09/04 08:18:22;;;;;;;8.40;3.80;;;20.80;99.90;;;;;;4233396;28;20638;-82
2023/09/04 08:20:23;;;;;;;5.43;3.58;;;20.90;99.90;;;;;;4240640;28;20031;-82
2023/09/04 08:22:25;;;;;;;7.10;3.60;;;21.20;99.90;;;;;;4217085;28;20032;-82
2023/09/04 08:24:26;;;;;;;9.85;3.83;;;21.40;99.90;;;;;;4249986;28;20081;-82
2023/09/04 08:26:29;;;;;;;4.50;2.92;;;21.50;99.90;;;;;;4242115;28;20031;-82
2023/09/04 08:28:30;;;;;;;5.32;3.53;;;21.60;99.90;;;;;;4233563;28;20048;-82
2023/09/04 08:30:32;;;;;;;4.70;2.72;;;21.80;99.90;;;;;;4233250;28;20044;-82
2023/09/04 08:32:32;;;;;;;3.35;2.65;;;21.60;99.90;;;;;;4242219;28;20040;-82
2023/09/04 08:34:34;;;;;;;7.38;3.30;;;22.30;99.90;;;;;;4220094;28;20150;-82
2023/09/04 08:36:35;;;;;;;3.47;2.72;;;22.30;99.90;;;;;;4230696;28;20047;-82
2023/09/04 08:38:36;;;;;;;4.85;2.70;;;22.50;99.90;;;;;;4248298;28;20398;-82
2023/09/04 08:40:39;;;;;;;4.10;2.47;;;;;;;;;;4248350;28;20043;-82
2023/09/04 08:42:45;;;;;;;3.90;2.33;;;23.70;99.90;;;;;;4229589;28;20048;-82
2023/09/04 08:44:47;;;;;;;3.75;2.70;;;;;;;;;;4245731;28;20425;-82
2023/09/04 08:46:50;;;;;;;6.18;2.35;;;;;;;;;;4230879;28;20047;-82
2023/09/04 08:48:52;;;;;;;3.28;1.83;;;23.20;99.90;;;;;;4212737;28;20048;-83
2023/09/04 08:50:53;;;;;;;8.02;2.33;;;23.40;99.90;;;;;;4230811;28;20097;-83
2023/09/04 08:52:54;;;;;;;4.45;2.05;;;;;;;;;;4232806;27;20093;-82
2023/09/04 08:54:55;;;;;;;5.68;2.20;;;;;;;;;;4234168;27;20051;-82
2023/09/04 08:56:57;;;;;;;4.13;2.38;;;;;;;;;;4235924;28;20387;-82
2023/09/04 08:58:58;;;;;;;4.57;2.35;;;;;;;;;;4233344;28;20040;-82
2023/09/04 09:00:59;;;;;;;3.33;1.90;;;23.50;99.90;;;;;;4233180;28;20039;-82
2023/09/04 09:03:00;;;;;;;3.17;1.90;;;23.90;99.90;;;;;;4215290;28;20093;-83
2023/09/04 09:05:02;;;;;;;3.45;1.60;;;24.20;99.90;;;;;;4215177;28;20515;-82
2023/09/04 09:07:04;;;;;;;4.15;1.90;;;24.40;99.90;;;;;;4215030;28;20076;-83
2023/09/04 09:09:07;;;;;;;4.55;1.63;;;24.30;99.90;;;;;;4214940;28;20127;-82
2023/09/04 09:11:08;;;;;;;2.85;1.60;;;24.30;99.90;;;;;;4235965;27;20047;-81
2023/09/04 09:13:08;;;;;;;2.42;1.60;;;24.40;99.90;;;;;;4245047;27;20058;-82
2023/09/04 09:15:09;;;;;;;3.85;1.70;;;24.40;99.90;;;;;;4246428;27;20085;-82
2023/09/04 09:17:14;;;;;;;1.85;1.38;;;24.20;99.90;;;;;;4247969;27;20054;-82
2023/09/04 09:19:14;;;;;;;1.60;1.50;;;24.20;99.90;;;;;;4249405;27;20050;-82
2023/09/04 09:21:26;;;;;;;3.17;1.48;;;24.30;99.90;;;;;;4231237;28;20043;-82
2023/09/04 09:23:29;;;;;;;3.03;1.70;;;24.80;99.90;;;;;;4231927;28;20159;-82
2023/09/04 09:25:31;;;;;;;4.80;1.70;;;;;;;;;;4250077;27;20096;-82
2023/09/04 09:27:33;;;;;;;2.75;1.73;;;25.20;99.90;;;;;;4231523;28;20122;-82
2023/09/04 09:29:34;;;;;;;2.55;1.65;;;25.90;99.90;;;;;;4255124;27;20042;-82
2023/09/04 09:31:36;;;;;;;4.60;2.00;;;25.90;99.90;;;;;;4242295;27;20070;-82
2023/09/04 09:33:38;;;;;;;2.35;1.48;;;26.30;99.90;;;;;;4244515;27;20145;-82
2023/09/04 09:35:40;;;;;;;3.45;1.50;;;26.70;99.90;;;;;;4232046;28;20039;-82
2023/09/04 09:37:41;;;;;;;2.70;1.77;;;;;;;;;;4247211;27;20035;-82
2023/09/04 09:39:42;;;;;;;4.57;2.03;;;27.10;99.90;;;;;;4249895;27;20072;-82
2023/09/04 09:41:45;;;;;;;5.18;2.20;;;27.80;99.90;;;;;;4249941;27;20050;-82
2023/09/04 09:43:46;;;;;;;2.33;1.77;;;27.80;99.90;;;;;;4249483;27;20039;-82
2023/09/04 09:45:49;;;;;;;6.60;1.80;;;27.50;99.90;;;;;;4249808;27;20130;-82
2023/09/04 09:47:51;;;;;;;3.10;1.73;;;27.60;99.90;;;;;;4230806;27;20870;-83
2023/09/04 09:49:55;;;;;;;2.65;2.00;;;27.90;99.90;;;;;;4243400;27;20035;-83
2023/09/04 09:51:56;;;;;;;3.47;1.73;;;28.20;99.90;;;;;;4231037;28;20499;-82
2023/09/04 09:53:57;;;;;;;5.95;1.58;;;28.10;99.90;;;;;;4231022;28;20085;-82
2023/09/04 09:55:58;;;;;;;4.40;1.40;;;27.80;99.80;;;;;;4248923;27;20414;-82
2023/09/04 09:58:01;;;;;;;2.90;1.42;;;27.50;99.20;;;;;;4231278;28;20035;-82
2023/09/04 10:00:02;;;;;;;3.20;1.30;;;27.20;99.10;;;;;;4249666;27;20043;-83
2023/09/04 10:02:04;;;;;;;2.42;1.27;;;27.20;99.90;;;;;;4231011;28;20043;-82
2023/09/04 10:04:06;;;;;;;3.35;1.70;;;27.30;99.90;;;;;;4242790;27;20391;-82
2023/09/04 10:06:10;;;;;;;3.63;1.52;;;;;;;;;;4248629;27;20100;-83
2023/09/04 10:08:12;;;;;;;2.95;1.60;;;;;;;;;;4248984;27;20050;-83
2023/09/04 10:10:13;;;;;;;3.30;1.88;;;;;;;;;;4237086;27;20491;-83
2023/09/04 10:12:35;;;;;;;2.58;1.67;;;;;;;;;;4239040;27;20063;-83
2023/09/04 10:14:40;;;;;;;2.95;2.17;;;;;;;;;;4234042;27;20088;-83
2023/09/04 10:16:47;;;;;;;5.03;1.75;;;;;;;;;;4241969;27;20028;-83
2023/09/04 10:18:53;;;;;;;3.83;2.33;;;;;;;;;;4248827;27;20121;-82
2023/09/04 10:20:55;;;;;;;3.75;1.70;;;27.40;99.90;;;;;;4249045;27;20092;-83
2023/09/04 10:23:06;;;;;;;2.00;1.50;;;27.30;97.40;;;;;;4239602;27;20040;-83
2023/09/04 10:25:16;;;;;;;3.78;2.75;;;;;;;;;;4237097;27;20047;-83
2023/09/04 10:27:19;;;;;;;3.78;1.77;;;27.40;97.70;;;;;;4237657;27;20484;-83
2023/09/04 10:29:25;;;;;;;2.22;1.65;;;27.60;97.80;;;;;;4240216;27;20115;-83
2023/09/04 10:31:26;;;;;;;4.35;1.90;;;27.90;98.20;;;;;;4240058;27;20445;-82
2023/09/04 10:33:27;;;;;;;3.80;1.90;;;28.30;98.10;;;;;;4248438;27;20035;-82
2023/09/04 10:35:28;;;;;;;2.22;1.45;;;;;;;;;;4248909;27;20099;-81
2023/09/04 10:37:30;;;;;;;3.75;1.60;;;28.70;98.30;;;;;;4235380;27;20445;-81
2023/09/04 10:39:32;;;;;;;2.55;1.70;;;;;;;;;;4243956;27;20043;-82